createdAt,value
2023-02-25T00:02:15.700Z,9.00
2023-02-25T00:04:42.196Z,9.00
2023-02-25T00:07:08.830Z,8.50
2023-02-25T00:09:35.460Z,9.30
2023-02-25T00:12:01.946Z,10.00
2023-02-25T00:14:28.347Z,10.20
2023-02-25T00:16:58.082Z,11.10
2023-02-25T00:19:24.925Z,9.60
2023-02-25T00:21:51.407Z,9.80
2023-02-25T00:24:17.913Z,10.70
2023-02-25T00:26:44.713Z,9.90
2023-02-25T00:29:11.214Z,9.90
2023-02-25T00:31:38.107Z,10.40
2023-02-25T00:34:04.760Z,10.40
2023-02-25T00:36:31.161Z,10.80
2023-02-25T00:38:58.035Z,10.50
2023-02-25T00:41:30.053Z,11.00
2023-02-25T00:43:58.162Z,10.30
2023-02-25T00:46:25.545Z,10.80
2023-02-25T00:48:52.307Z,11.90
2023-02-25T00:51:20.691Z,10.10
2023-02-25T00:53:47.080Z,10.30
2023-02-25T00:56:15.312Z,10.80
2023-02-25T00:58:43.011Z,10.20
2023-02-25T01:01:38.414Z,9.60
2023-02-25T01:04:05.360Z,10.30
2023-02-25T01:06:32.489Z,9.80
2023-02-25T01:08:59.148Z,10.80
2023-02-25T01:11:28.492Z,9.60
2023-02-25T01:13:59.798Z,10.40
2023-02-25T01:16:27.417Z,9.90
2023-02-25T01:18:54.974Z,10.70
2023-02-25T01:21:25.367Z,10.00
2023-02-25T01:23:58.179Z,9.40
2023-02-25T01:26:25.353Z,9.90
2023-02-25T01:28:52.163Z,10.10
2023-02-25T01:31:19.773Z,10.40
2023-02-25T01:33:46.295Z,10.00
2023-02-25T01:36:12.710Z,9.30
2023-02-25T01:38:39.077Z,9.70
2023-02-25T01:41:05.605Z,9.80
2023-02-25T01:43:31.983Z,9.60
2023-02-25T01:45:58.324Z,10.40
2023-02-25T01:48:26.868Z,10.00
2023-02-25T01:50:55.005Z,10.20
2023-02-25T01:53:23.434Z,10.50
2023-02-25T01:55:50.241Z,8.70
2023-02-25T01:58:17.001Z,8.80
2023-02-25T02:00:43.485Z,9.20
2023-02-25T02:03:15.436Z,9.10
2023-02-25T02:06:00.611Z,9.30
2023-02-25T02:08:27.418Z,8.80
2023-02-25T02:10:55.628Z,8.80
2023-02-25T02:13:22.207Z,9.10
2023-02-25T02:16:07.560Z,8.80
2023-02-25T02:18:36.242Z,9.30
2023-02-25T02:21:02.661Z,9.30
2023-02-25T02:23:58.568Z,8.60
2023-02-25T02:26:57.297Z,9.60
2023-02-25T02:29:29.709Z,9.10
2023-02-25T02:31:56.271Z,9.40
2023-02-25T02:34:38.096Z,9.40
2023-02-25T02:37:23.496Z,9.40
2023-02-25T02:39:53.122Z,9.40
2023-02-25T02:42:20.683Z,10.00
2023-02-25T02:44:49.962Z,10.20
2023-02-25T02:47:18.306Z,10.00
2023-02-25T02:49:50.866Z,11.00
2023-02-25T02:52:20.644Z,9.90
2023-02-25T02:54:53.987Z,9.60
2023-02-25T02:57:21.492Z,9.90
2023-02-25T02:59:53.402Z,9.70
2023-02-25T03:02:23.119Z,9.60
2023-02-25T03:04:51.745Z,9.00
2023-02-25T03:07:18.576Z,8.60
2023-02-25T03:09:52.916Z,8.60
2023-02-25T03:12:19.587Z,10.10
2023-02-25T03:14:46.266Z,9.10
2023-02-25T03:17:32.878Z,9.80
2023-02-25T03:20:03.342Z,9.30
2023-02-25T03:22:32.929Z,8.70
2023-02-25T03:24:59.427Z,9.40
2023-02-25T03:27:33.763Z,8.60
2023-02-25T03:30:12.630Z,9.00
2023-02-25T03:32:40.636Z,8.80
2023-02-25T03:35:08.934Z,8.60
2023-02-25T03:37:38.191Z,8.30
2023-02-25T03:40:10.647Z,8.30
2023-02-25T03:42:39.937Z,8.10
2023-02-25T03:45:08.601Z,7.90
2023-02-25T03:47:36.944Z,7.40
2023-02-25T03:50:23.567Z,7.60
2023-02-25T03:52:50.006Z,7.00
2023-02-25T03:55:17.918Z,7.00
2023-02-25T03:57:45.317Z,6.60
2023-02-25T04:00:22.699Z,6.50
2023-02-25T04:02:49.500Z,6.40
2023-02-25T04:05:17.926Z,6.40
2023-02-25T04:07:44.427Z,6.40
2023-02-25T04:10:11.862Z,6.10
2023-02-25T04:12:38.340Z,6.20
2023-02-25T04:15:05.438Z,6.00
2023-02-25T04:17:32.019Z,5.80
2023-02-25T04:19:58.397Z,6.10
2023-02-25T04:22:24.827Z,6.00
2023-02-25T04:24:51.403Z,5.90
2023-02-25T04:27:17.825Z,5.60
2023-02-25T04:29:44.433Z,5.50
2023-02-25T04:32:11.430Z,5.30
2023-02-25T04:34:37.813Z,4.80
2023-02-25T04:37:04.489Z,4.60
2023-02-25T04:39:31.848Z,4.80
2023-02-25T04:41:58.375Z,5.10
2023-02-25T04:44:25.068Z,5.60
2023-02-25T04:46:51.958Z,4.60
2023-02-25T04:49:20.079Z,4.20
2023-02-25T04:51:46.891Z,4.00
2023-02-25T04:54:13.276Z,4.00
2023-02-25T04:56:39.710Z,3.50
2023-02-25T04:59:06.902Z,3.40
2023-02-25T05:01:33.500Z,3.60
2023-02-25T05:04:00.099Z,3.70
2023-02-25T05:06:26.897Z,3.00
2023-02-25T05:08:54.147Z,2.80
2023-02-25T05:11:20.741Z,2.70
2023-02-25T05:13:47.122Z,2.60
2023-02-25T05:16:16.059Z,2.50
2023-02-25T05:18:43.443Z,2.20
2023-02-25T05:21:14.138Z,2.30
2023-02-25T05:23:41.519Z,2.40
2023-02-25T05:26:08.491Z,2.00
2023-02-25T05:28:35.267Z,2.00
2023-02-25T05:31:05.140Z,2.80
2023-02-25T05:33:31.720Z,2.20
2023-02-25T05:35:58.150Z,2.20
2023-02-25T05:38:25.413Z,2.20
2023-02-25T05:40:51.727Z,2.20
2023-02-25T05:43:18.151Z,2.00
2023-02-25T05:45:44.546Z,2.10
2023-02-25T05:48:10.936Z,2.10
2023-02-25T05:50:40.712Z,1.90
2023-02-25T05:53:07.968Z,2.10
2023-02-25T05:55:34.803Z,2.00
2023-02-25T05:58:01.141Z,1.90
2023-02-25T06:00:27.582Z,1.90
2023-02-25T06:02:53.987Z,1.90
2023-02-25T06:05:20.776Z,2.00
2023-02-25T06:07:47.520Z,2.20
2023-02-25T06:10:13.851Z,2.30
2023-02-25T06:12:40.449Z,1.60
2023-02-25T06:15:07.102Z,1.70
2023-02-25T06:17:33.438Z,1.80
2023-02-25T06:20:00.646Z,1.80
2023-02-25T06:22:27.044Z,1.70
2023-02-25T06:24:53.422Z,1.70
2023-02-25T06:27:19.927Z,1.70
2023-02-25T06:29:47.016Z,1.50
2023-02-25T06:32:13.662Z,1.70
2023-02-25T06:34:40.294Z,1.90
2023-02-25T06:37:06.991Z,1.80
2023-02-25T06:39:33.719Z,1.70
2023-02-25T06:42:00.222Z,2.10
2023-02-25T06:44:28.489Z,2.10
2023-02-25T06:46:55.349Z,2.00
2023-02-25T06:49:22.583Z,2.30
2023-02-25T06:51:51.888Z,2.00
2023-02-25T06:54:18.445Z,2.10
2023-02-25T06:56:50.518Z,2.30
2023-02-25T06:59:17.038Z,2.30
2023-02-25T07:01:43.402Z,2.40
2023-02-25T07:04:14.310Z,2.50
2023-02-25T07:06:40.766Z,2.30
2023-02-25T07:09:07.171Z,2.60
2023-02-25T07:11:35.248Z,2.40
2023-02-25T07:14:05.540Z,2.30
2023-02-25T07:16:33.723Z,2.60
2023-02-25T07:19:01.701Z,2.50
2023-02-25T07:21:30.004Z,2.60
2023-02-25T07:23:57.023Z,2.30
2023-02-25T07:26:27.579Z,2.10
2023-02-25T07:28:58.483Z,2.50
2023-02-25T07:31:26.460Z,2.70
2023-02-25T07:33:53.948Z,2.40
2023-02-25T07:36:20.585Z,2.20
2023-02-25T07:38:50.173Z,2.30
2023-02-25T07:41:18.057Z,2.60
2023-02-25T07:43:44.752Z,3.00
2023-02-25T07:46:12.663Z,2.40
2023-02-25T07:48:39.239Z,2.40
2023-02-25T07:51:07.190Z,2.80
2023-02-25T07:53:36.272Z,2.40
2023-02-25T07:56:02.878Z,2.10
2023-02-25T07:58:29.423Z,2.40
2023-02-25T08:00:59.866Z,2.30
2023-02-25T08:03:26.284Z,2.30
2023-02-25T08:05:53.978Z,2.20
2023-02-25T08:08:21.345Z,2.30
2023-02-25T08:10:51.135Z,2.50
2023-02-25T08:13:18.759Z,2.80
2023-02-25T08:15:45.286Z,3.20
2023-02-25T08:18:11.927Z,2.80
2023-02-25T08:22:17.140Z,3.20
2023-02-25T08:24:45.003Z,3.10
2023-02-25T08:27:13.033Z,3.40
2023-02-25T08:29:42.895Z,3.30
2023-02-25T08:32:11.219Z,2.50
2023-02-25T08:34:39.292Z,2.70
2023-02-25T08:37:08.742Z,3.90
2023-02-25T08:39:36.671Z,3.60
2023-02-25T08:42:04.765Z,4.00
2023-02-25T08:44:32.708Z,3.90
2023-02-25T08:47:00.743Z,3.80
2023-02-25T08:49:28.979Z,3.10
2023-02-25T08:51:57.250Z,3.70
2023-02-25T08:54:25.297Z,2.20
2023-02-25T08:56:55.679Z,2.20
2023-02-25T08:59:23.618Z,2.50
2023-02-25T09:01:53.205Z,2.10
2023-02-25T09:04:23.405Z,2.30
2023-02-25T09:06:54.261Z,2.30
2023-02-25T09:09:22.166Z,1.70
2023-02-25T09:11:50.304Z,1.80
2023-02-25T09:14:18.171Z,1.60
2023-02-25T09:16:46.227Z,2.00
2023-02-25T09:19:15.945Z,1.80
2023-02-25T09:21:44.955Z,1.80
2023-02-25T09:24:12.800Z,1.30
2023-02-25T09:26:40.676Z,1.50
2023-02-25T09:29:08.947Z,1.10
2023-02-25T09:31:37.662Z,1.20
2023-02-25T09:34:07.726Z,0.90
2023-02-25T09:36:36.162Z,1.20
2023-02-25T09:39:07.099Z,1.20
2023-02-25T09:41:34.921Z,1.30
2023-02-25T09:44:08.555Z,1.30
2023-02-25T09:46:38.620Z,1.30
2023-02-25T09:49:10.313Z,1.70
2023-02-25T09:51:41.044Z,1.60
2023-02-25T09:54:21.777Z,1.30
2023-02-25T09:56:56.531Z,1.20
2023-02-25T09:59:42.958Z,1.00
2023-02-25T10:02:32.797Z,1.00
2023-02-25T10:05:22.101Z,1.20
2023-02-25T10:07:56.960Z,1.00
2023-02-25T10:10:34.529Z,1.10
2023-02-25T10:13:11.331Z,1.60
2023-02-25T10:15:52.381Z,1.50
2023-02-25T10:18:44.370Z,1.40
2023-02-25T10:21:20.937Z,1.20
2023-02-25T10:24:15.295Z,1.50
2023-02-25T10:26:47.526Z,1.20
2023-02-25T10:29:24.147Z,1.20
2023-02-25T10:31:56.080Z,1.20
2023-02-25T10:34:28.844Z,1.40
2023-02-25T10:36:58.398Z,1.10
2023-02-25T10:39:27.369Z,1.20
2023-02-25T10:41:56.457Z,0.90
2023-02-25T10:44:24.363Z,1.30
2023-02-25T10:46:52.267Z,1.30
2023-02-25T10:49:23.131Z,1.10
2023-02-25T10:52:17.782Z,1.10
2023-02-25T10:54:50.951Z,1.30
2023-02-25T10:57:19.083Z,1.10
2023-02-25T10:59:47.444Z,1.00
2023-02-25T11:02:32.024Z,1.60
2023-02-25T11:05:00.754Z,1.30
2023-02-25T11:07:38.253Z,1.30
2023-02-25T11:10:12.630Z,1.40
2023-02-25T11:12:48.386Z,1.40
2023-02-25T11:15:37.848Z,1.30
2023-02-25T11:18:18.293Z,1.30
2023-02-25T11:20:52.312Z,1.50
2023-02-25T11:23:44.888Z,1.70
2023-02-25T11:26:28.203Z,1.60
2023-02-25T11:28:59.444Z,1.40
2023-02-25T11:31:40.902Z,1.80
2023-02-25T11:34:35.560Z,1.30
2023-02-25T11:37:22.627Z,1.50
2023-02-25T11:39:55.757Z,1.20
2023-02-25T11:42:26.618Z,1.60
2023-02-25T11:45:01.886Z,1.10
2023-02-25T11:47:36.109Z,1.40
2023-02-25T11:50:05.363Z,1.30
2023-02-25T11:52:44.571Z,1.50
2023-02-25T11:55:21.844Z,1.50
2023-02-25T11:57:52.642Z,1.70
2023-02-25T12:00:39.321Z,1.50
2023-02-25T12:03:10.640Z,1.50
2023-02-25T12:12:27.115Z,2.00
2023-02-25T12:15:05.514Z,1.10
2023-02-25T12:17:50.568Z,1.00
2023-02-25T12:20:36.038Z,1.20
2023-02-25T12:23:06.098Z,1.10
2023-02-25T12:25:44.751Z,1.10
2023-02-25T12:28:17.376Z,1.10
2023-02-25T12:30:56.298Z,1.20
2023-02-25T12:33:41.962Z,0.90
2023-02-25T12:36:25.587Z,1.00
2023-02-25T12:38:55.158Z,0.90
2023-02-25T12:41:21.980Z,0.80
2023-02-25T12:43:51.699Z,0.90
2023-02-25T12:46:27.344Z,0.90
2023-02-25T12:49:21.478Z,0.80
2023-02-25T12:57:19.080Z,0.80
2023-02-25T13:00:10.248Z,0.80
2023-02-25T13:02:50.886Z,1.30
2023-02-25T13:05:22.449Z,0.90
2023-02-25T13:08:09.734Z,0.90
2023-02-25T13:10:58.445Z,1.20
2023-02-25T13:13:26.593Z,1.20
2023-02-25T13:16:18.460Z,1.70
2023-02-25T13:18:53.148Z,3.10
2023-02-25T13:21:36.659Z,1.30
2023-02-25T13:24:23.531Z,1.30
2023-02-25T13:26:51.524Z,1.10
2023-02-25T13:29:38.604Z,1.30
2023-02-25T13:32:53.405Z,1.10
2023-02-25T13:35:27.447Z,0.90
2023-02-25T13:37:56.818Z,1.60
2023-02-25T13:40:35.646Z,1.40
2023-02-25T13:43:03.186Z,1.50
2023-02-25T13:45:48.913Z,1.10
2023-02-25T13:48:34.371Z,1.10
2023-02-25T13:51:13.335Z,2.00
2023-02-25T13:53:52.453Z,2.40
2023-02-25T13:56:28.275Z,5.10
2023-02-25T13:58:57.952Z,5.20
2023-02-25T14:01:27.842Z,3.70
2023-02-25T14:04:01.097Z,5.00
2023-02-25T14:06:27.529Z,5.60
2023-02-25T14:09:12.826Z,5.80
2023-02-25T14:11:51.250Z,3.30
2023-02-25T14:14:17.766Z,3.10
2023-02-25T14:16:53.219Z,2.30
2023-02-25T14:19:42.997Z,2.40
2023-02-25T14:22:21.975Z,2.10
2023-02-25T14:24:55.110Z,1.90
2023-02-25T14:27:27.672Z,1.50
2023-02-25T14:30:01.291Z,1.80
2023-02-25T14:32:44.813Z,1.80
2023-02-25T14:35:17.614Z,2.20
2023-02-25T14:38:00.954Z,1.70
2023-02-25T14:40:31.416Z,1.90
2023-02-25T14:42:58.203Z,1.50
2023-02-25T14:45:28.322Z,1.50
2023-02-25T14:48:13.656Z,1.40
2023-02-25T14:50:50.655Z,1.70
2023-02-25T14:53:23.042Z,1.60
2023-02-25T14:56:09.758Z,1.80
2023-02-25T14:59:02.407Z,1.80
2023-02-25T15:01:38.394Z,1.50
2023-02-25T15:04:20.045Z,1.50
2023-02-25T15:06:49.735Z,1.30
2023-02-25T15:09:20.260Z,1.50
2023-02-25T15:11:55.904Z,2.00
2023-02-25T15:14:41.183Z,1.60
2023-02-25T15:17:07.718Z,2.10
2023-02-25T15:19:48.802Z,1.90
2023-02-25T15:22:25.420Z,1.80
2023-02-25T15:25:11.172Z,1.80
2023-02-25T15:27:37.633Z,1.80
2023-02-25T15:30:04.339Z,2.40
2023-02-25T15:32:50.127Z,2.10
2023-02-25T15:35:24.427Z,1.40
2023-02-25T15:37:51.477Z,1.60
2023-02-25T15:40:19.693Z,1.60
2023-02-25T15:42:49.198Z,1.70
2023-02-25T15:45:28.213Z,2.40
2023-02-25T15:48:18.544Z,1.60
2023-02-25T15:50:45.852Z,1.90
2023-02-25T15:53:22.868Z,2.70
2023-02-25T15:55:53.512Z,1.70
2023-02-25T15:58:26.087Z,2.20
2023-02-25T16:00:53.986Z,1.80
2023-02-25T16:03:37.885Z,1.90
2023-02-25T16:06:20.768Z,2.00
2023-02-25T16:09:02.552Z,2.80
2023-02-25T16:11:41.496Z,3.40
2023-02-25T16:14:22.862Z,2.60
2023-02-25T16:16:51.367Z,2.70
2023-02-25T16:19:20.619Z,1.80
2023-02-25T16:21:55.282Z,1.50
2023-02-25T16:24:22.406Z,2.20
2023-02-25T16:26:58.013Z,1.90
2023-02-25T16:29:44.748Z,2.40
2023-02-25T16:32:30.257Z,1.90
2023-02-25T16:35:00.895Z,2.00
2023-02-25T16:37:40.667Z,2.00
2023-02-25T16:40:24.010Z,2.30
2023-02-25T16:42:51.110Z,2.50
2023-02-25T16:45:35.801Z,3.30
2023-02-25T16:48:06.870Z,2.30
2023-02-25T16:50:34.572Z,2.20
2023-02-25T16:53:02.718Z,2.60
2023-02-25T16:55:36.609Z,2.30
2023-02-25T16:58:18.880Z,2.60
2023-02-25T17:00:51.081Z,2.50
2023-02-25T17:03:18.263Z,3.10
2023-02-25T17:05:57.324Z,2.50
2023-02-25T17:08:24.246Z,2.20
2023-02-25T17:10:52.545Z,3.60
2023-02-25T17:13:23.996Z,3.90
2023-02-25T17:15:52.030Z,5.20
2023-02-25T17:18:26.402Z,6.00
2023-02-25T17:20:59.472Z,5.70
2023-02-25T17:23:26.006Z,5.70
2023-02-25T17:25:52.547Z,4.40
2023-02-25T17:28:24.544Z,5.10
2023-02-25T17:30:51.560Z,4.50
2023-02-25T17:33:21.310Z,4.20
2023-02-25T17:35:49.216Z,4.40
2023-02-25T17:38:18.005Z,3.30
2023-02-25T17:40:45.637Z,2.90
2023-02-25T17:43:15.138Z,3.70
2023-02-25T17:45:44.186Z,2.70
2023-02-25T17:48:43.147Z,2.90
2023-02-25T17:51:10.218Z,2.40
2023-02-25T17:53:38.857Z,2.50
2023-02-25T17:56:15.391Z,3.70
2023-02-25T17:58:43.307Z,3.10
2023-02-25T18:01:28.968Z,3.30
2023-02-25T18:03:56.553Z,3.10
2023-02-25T18:06:31.179Z,3.30
2023-02-25T18:09:03.591Z,2.40
2023-02-25T18:11:32.286Z,2.20
2023-02-25T18:14:04.699Z,1.80
2023-02-25T18:16:44.331Z,2.40
2023-02-25T18:19:31.690Z,2.80
2023-02-25T18:21:58.616Z,3.60
2023-02-25T18:24:27.782Z,3.30
2023-02-25T18:27:05.543Z,4.90
2023-02-25T18:29:32.549Z,2.10
2023-02-25T18:31:59.427Z,2.70
2023-02-25T18:34:26.485Z,2.70
2023-02-25T18:36:53.288Z,1.90
2023-02-25T18:39:22.077Z,2.70
2023-02-25T18:41:48.715Z,2.10
2023-02-25T18:44:16.196Z,2.00
2023-02-25T18:46:43.319Z,2.00
2023-02-25T18:49:10.097Z,2.50
2023-02-25T18:51:37.527Z,2.60
2023-02-25T18:54:04.702Z,2.50
2023-02-25T18:56:32.178Z,2.60
2023-02-25T18:58:58.822Z,2.90
2023-02-25T19:01:28.866Z,3.90
2023-02-25T19:03:59.375Z,3.60
2023-02-25T19:06:28.119Z,3.40
2023-02-25T19:08:55.800Z,2.10
2023-02-25T19:11:24.971Z,3.20
2023-02-25T19:13:52.343Z,4.20
2023-02-25T19:16:19.560Z,4.30
2023-02-25T19:18:47.285Z,4.50
2023-02-25T19:21:16.286Z,4.00
2023-02-25T19:23:43.559Z,4.30
2023-02-25T19:26:10.841Z,4.40
2023-02-25T19:28:37.740Z,3.20
2023-02-25T19:31:06.241Z,2.70
2023-02-25T19:33:33.108Z,3.50
2023-02-25T19:36:01.310Z,2.60
2023-02-25T19:38:28.070Z,3.90
2023-02-25T19:41:00.716Z,2.80
2023-02-25T19:43:29.748Z,3.60
2023-02-25T19:45:56.453Z,2.90
2023-02-25T19:48:24.198Z,3.80
2023-02-25T19:50:51.031Z,4.50
2023-02-25T19:53:18.400Z,2.60
2023-02-25T19:55:45.366Z,2.30
2023-02-25T19:58:12.251Z,2.60
2023-02-25T20:00:45.086Z,2.00
2023-02-25T20:03:13.333Z,1.60
2023-02-25T20:05:41.855Z,2.70
2023-02-25T20:08:08.897Z,1.90
2023-02-25T20:10:35.415Z,1.80
2023-02-25T20:13:02.229Z,2.00
2023-02-25T20:15:29.318Z,1.70
2023-02-25T20:17:56.885Z,2.10
2023-02-25T20:20:23.408Z,2.00
2023-02-25T20:22:50.495Z,1.80
2023-02-25T20:25:17.791Z,2.10
2023-02-25T20:27:44.951Z,1.90
2023-02-25T20:30:14.387Z,1.80
2023-02-25T20:32:45.010Z,1.80
2023-02-25T20:35:17.073Z,1.70
2023-02-25T20:37:49.893Z,2.20
2023-02-25T20:40:17.237Z,1.70
2023-02-25T20:42:44.378Z,2.00
2023-02-25T20:45:14.444Z,1.70
2023-02-25T20:47:41.252Z,2.10
2023-02-25T20:50:09.104Z,1.60
2023-02-25T20:52:35.853Z,2.10
2023-02-25T20:55:07.048Z,2.40
2023-02-25T20:57:34.895Z,3.10
2023-02-25T21:00:04.229Z,3.30
2023-02-25T21:02:31.480Z,2.40
2023-02-25T21:04:58.666Z,2.50
2023-02-25T21:07:29.090Z,2.30
2023-02-25T21:09:56.777Z,2.60
2023-02-25T21:12:23.997Z,2.20
2023-02-25T21:14:52.159Z,2.00
2023-02-25T21:17:19.270Z,2.50
2023-02-25T21:19:45.858Z,2.30
2023-02-25T21:22:12.895Z,2.00
2023-02-25T21:24:39.752Z,2.10
2023-02-25T21:27:06.675Z,1.80
2023-02-25T21:29:33.243Z,2.40
2023-02-25T21:31:59.921Z,2.60
2023-02-25T21:34:26.464Z,2.40
2023-02-25T21:36:57.567Z,2.80
2023-02-25T21:39:25.315Z,1.90
2023-02-25T21:41:53.413Z,1.90
2023-02-25T21:44:19.994Z,2.00
2023-02-25T21:46:46.625Z,2.80
2023-02-25T21:49:13.261Z,1.80
2023-02-25T21:51:39.905Z,2.20
2023-02-25T21:54:06.617Z,2.10
2023-02-25T21:56:33.538Z,1.80
2023-02-25T21:59:01.340Z,2.20
2023-02-25T22:01:29.221Z,2.50
2023-02-25T22:03:56.258Z,2.00
2023-02-25T22:06:23.605Z,2.30
2023-02-25T22:08:50.872Z,2.20
2023-02-25T22:11:18.938Z,2.80
2023-02-25T22:13:45.939Z,2.30
2023-02-25T22:16:13.273Z,2.00
2023-02-25T22:18:40.204Z,2.00
2023-02-25T22:21:08.983Z,2.00
2023-02-25T22:23:35.679Z,2.40
2023-02-25T22:26:06.195Z,1.60
2023-02-25T22:28:32.914Z,2.20
2023-02-25T22:31:03.015Z,1.70
2023-02-25T22:33:30.858Z,1.70
2023-02-25T22:35:58.428Z,1.80
2023-02-25T22:38:26.646Z,1.70
2023-02-25T22:40:53.192Z,1.90
2023-02-25T22:43:19.699Z,1.50
2023-02-25T22:45:46.327Z,1.90
2023-02-25T22:48:12.788Z,1.70
2023-02-25T22:50:42.992Z,1.60
2023-02-25T22:53:10.297Z,2.00
2023-02-25T22:55:37.358Z,2.00
2023-02-25T22:58:04.945Z,2.20
2023-02-25T23:00:35.832Z,2.00
2023-02-25T23:03:02.486Z,2.30
2023-02-25T23:05:29.358Z,1.90
2023-02-25T23:07:55.812Z,1.70
2023-02-25T23:10:23.061Z,2.30
2023-02-25T23:12:49.935Z,1.60
2023-02-25T23:15:16.612Z,2.00
2023-02-25T23:17:46.052Z,1.70
2023-02-25T23:20:12.964Z,1.80
2023-02-25T23:22:39.351Z,2.40
2023-02-25T23:25:06.087Z,2.00
2023-02-25T23:27:34.497Z,4.20
2023-02-25T23:30:01.271Z,2.20
2023-02-25T23:32:27.919Z,1.90
2023-02-25T23:34:54.439Z,2.00
2023-02-25T23:37:21.098Z,1.90
2023-02-25T23:39:47.903Z,2.10
2023-02-25T23:42:14.373Z,2.40
2023-02-25T23:44:40.869Z,1.90
2023-02-25T23:47:07.314Z,2.10
2023-02-25T23:49:33.848Z,1.70
2023-02-25T23:52:00.372Z,1.80
2023-02-25T23:54:26.874Z,2.10
2023-02-25T23:56:53.353Z,1.80
2023-02-25T23:59:21.727Z,1.40
